Time;durP1;ratioP1;P1;durP2;ratioP2;P2;SDS_P1;SDS_P2;PMS_P1;PMS_P2;Temp;Humidity;BMP_temperature;BMP_pressure;BME280_temperature;BME280_humidity;BME280_pressure;Samples;Min_cycle;Max_cycle;Signal;HPM_P1;HPM_P2
2022/09/09 00:01:20;;;;;;;18.48;14.75;;;14.60;99.90;;;;;;5091811;28;20039;-89
2022/09/09 00:04:31;;;;;;;17.92;16.02;;;14.60;99.90;;;;;;5075956;27;20043;-89
2022/09/09 00:07:24;;;;;;;15.38;13.88;;;14.60;99.90;;;;;;5073238;27;20120;-87
2022/09/09 00:10:28;;;;;;;18.40;15.25;;;14.60;99.90;;;;;;5083974;28;20462;-87
2022/09/09 00:13:19;;;;;;;12.93;11.60;;;14.50;99.90;;;;;;5102100;27;20083;-87
2022/09/09 00:16:06;;;;;;;13.40;11.82;;;14.50;99.90;;;;;;5082456;27;20118;-88
2022/09/09 00:19:01;;;;;;;13.88;12.48;;;14.50;99.90;;;;;;5086010;27;20564;-89
2022/09/09 00:21:43;;;;;;;11.95;10.82;;;14.40;99.90;;;;;;5052762;27;20043;-88
2022/09/09 00:24:31;;;;;;;12.77;11.50;;;14.40;99.90;;;;;;5076101;27;20397;-89
2022/09/09 00:27:08;;;;;;;15.45;13.82;;;14.30;99.90;;;;;;5065827;27;20460;-89
2022/09/09 00:30:18;;;;;;;15.43;13.40;;;14.40;99.90;;;;;;5081065;27;20039;-89
2022/09/09 00:32:44;;;;;;;13.85;12.63;;;14.30;99.90;;;;;;5069783;27;20051;-89
2022/09/09 00:35:10;;;;;;;13.93;12.57;;;14.20;99.90;;;;;;5057254;28;20075;-88
2022/09/09 00:37:41;;;;;;;36.03;21.75;;;14.20;99.90;;;;;;5092509;27;20042;-88
2022/09/09 00:40:35;;;;;;;13.70;12.50;;;14.20;99.90;;;;;;5085292;28;20694;-89
2022/09/09 00:43:34;;;;;;;14.38;12.55;;;14.20;99.90;;;;;;5067094;28;20060;-88
2022/09/09 00:46:09;;;;;;;16.15;13.13;;;14.10;99.90;;;;;;5077361;27;20058;-89
2022/09/09 00:48:41;;;;;;;15.98;14.10;;;14.10;99.90;;;;;;5079415;27;20052;-89
2022/09/09 00:51:18;;;;;;;14.93;13.25;;;14.10;99.90;;;;;;5074678;28;20048;-89
2022/09/09 00:54:25;;;;;;;16.88;13.90;;;14.10;99.90;;;;;;5071375;27;20051;-86
2022/09/09 00:57:00;;;;;;;19.77;16.73;;;14.10;99.90;;;;;;5068078;27;20091;-87
2022/09/09 00:59:40;;;;;;;13.52;12.27;;;14.10;99.90;;;;;;5071113;28;20581;-80
2022/09/09 01:02:35;;;;;;;15.98;14.10;;;14.10;99.90;;;;;;5079054;27;20082;-80
2022/09/09 01:05:11;;;;;;;13.57;11.60;;;14.10;99.90;;;;;;5086634;28;20134;-87
2022/09/09 01:07:37;;;;;;;12.30;11.02;;;14.00;99.90;;;;;;5078199;28;20048;-86
2022/09/09 01:10:26;;;;;;;12.98;11.68;;;14.00;99.90;;;;;;5073086;27;20545;-87
2022/09/09 01:12:55;;;;;;;15.10;13.35;;;14.00;99.90;;;;;;5092017;28;20094;-80
2022/09/09 01:15:25;;;;;;;17.60;13.57;;;14.10;99.90;;;;;;5069185;27;20051;-80
2022/09/09 01:18:11;;;;;;;;;;;14.10;99.90;;;;;;5070060;28;20055;-80
2022/09/09 01:20:49;;;;;;;13.60;12.07;;;14.10;99.90;;;;;;5058390;28;19946;-81
2022/09/09 01:23:50;;;;;;;15.43;12.70;;;14.10;99.90;;;;;;5077246;28;20295;-81
2022/09/09 01:26:30;;;;;;;18.33;12.98;;;14.10;99.90;;;;;;5053040;28;20042;-81
2022/09/09 01:28:56;;;;;;;15.15;13.35;;;14.10;99.90;;;;;;5066231;28;20434;-80
2022/09/09 01:31:55;;;;;;;16.52;14.02;;;14.10;99.90;;;;;;5072073;28;20138;-80
2022/09/09 01:34:25;;;;;;;15.85;13.90;;;14.20;99.90;;;;;;5063771;27;20035;-81
2022/09/09 01:37:09;;;;;;;15.40;13.18;;;14.20;99.90;;;;;;5091021;28;20035;-87
2022/09/09 01:39:37;;;;;;;17.52;14.15;;;14.20;99.90;;;;;;5075129;27;20564;-87
2022/09/09 01:42:04;;;;;;;15.38;13.02;;;14.20;99.90;;;;;;5066487;28;20055;-87
2022/09/09 01:44:31;;;;;;;16.80;12.10;;;14.20;99.90;;;;;;5068090;27;20040;-87
2022/09/09 01:46:57;;;;;;;15.23;12.90;;;14.20;99.90;;;;;;5050244;28;20039;-87
2022/09/09 01:49:23;;;;;;;16.45;13.95;;;14.20;99.90;;;;;;5064636;27;20121;-86
2022/09/09 01:51:54;;;;;;;22.15;16.63;;;14.20;99.90;;;;;;5073695;28;20031;-87
2022/09/09 01:54:23;;;;;;;13.98;12.57;;;14.20;99.90;;;;;;5066768;28;20080;-81
2022/09/09 01:57:00;;;;;;;12.98;11.77;;;14.20;99.90;;;;;;5062469;28;20048;-81
2022/09/09 01:59:41;;;;;;;18.75;15.75;;;14.20;99.90;;;;;;5065421;28;20130;-81
2022/09/09 02:02:20;;;;;;;16.35;12.48;;;14.30;99.90;;;;;;5061719;28;20052;-81
2022/09/09 02:04:54;;;;;;;16.25;13.00;;;14.30;99.90;;;;;;5078911;28;20044;-81
2022/09/09 02:07:42;;;;;;;17.02;12.32;;;14.30;99.90;;;;;;5048727;28;20037;-81
2022/09/09 02:10:11;;;;;;;13.20;11.02;;;14.40;99.90;;;;;;5054168;28;20127;-81
2022/09/09 02:12:45;;;;;;;15.95;12.18;;;14.40;99.90;;;;;;5056515;28;20044;-81
2022/09/09 02:15:26;;;;;;;15.63;11.75;;;14.50;99.90;;;;;;5051932;28;20114;-81
2022/09/09 02:17:53;;;;;;;17.60;13.65;;;14.50;99.90;;;;;;5048122;28;20048;-88
2022/09/09 02:20:38;;;;;;;14.43;11.98;;;14.50;99.90;;;;;;5071772;28;20666;-88
2022/09/09 02:23:05;;;;;;;15.00;12.35;;;14.60;99.90;;;;;;5072546;28;20048;-88
2022/09/09 02:25:38;;;;;;;15.43;10.80;;;14.60;99.90;;;;;;5072167;28;20048;-87
2022/09/09 02:28:07;;;;;;;13.32;10.68;;;14.60;99.90;;;;;;5060472;28;20036;-86
2022/09/09 02:30:38;;;;;;;14.73;10.97;;;14.60;99.90;;;;;;5065959;28;20048;-87
2022/09/09 02:33:07;;;;;;;15.23;11.65;;;14.70;99.90;;;;;;5052737;28;20693;-87
2022/09/09 02:35:37;;;;;;;12.57;10.43;;;14.60;99.90;;;;;;5074703;28;20140;-88
2022/09/09 02:38:09;;;;;;;16.45;11.63;;;14.70;99.90;;;;;;5049548;28;20721;-87
2022/09/09 02:40:34;;;;;;;14.63;13.05;;;14.70;99.90;;;;;;5052693;28;20048;-88
2022/09/09 02:43:00;;;;;;;16.67;12.27;;;14.70;99.90;;;;;;5043909;28;20048;-88
2022/09/09 02:45:43;;;;;;;17.02;13.10;;;14.70;99.90;;;;;;5035676;28;20052;-86
2022/09/09 02:48:22;;;;;;;16.77;12.98;;;14.70;99.90;;;;;;5056822;28;20049;-87
2022/09/09 02:50:48;;;;;;;15.00;12.32;;;14.70;99.90;;;;;;5046211;28;20522;-83
2022/09/09 02:53:23;;;;;;;16.63;12.32;;;14.70;99.90;;;;;;5080575;28;20057;-87
2022/09/09 02:55:59;;;;;;;14.85;12.95;;;14.70;99.90;;;;;;5073326;28;20109;-88
2022/09/09 02:58:26;;;;;;;15.00;11.18;;;14.70;99.90;;;;;;5066290;28;20041;-85
2022/09/09 03:00:52;;;;;;;14.32;11.50;;;14.70;99.90;;;;;;5053363;28;20360;-86
2022/09/09 03:03:19;;;;;;;15.85;12.70;;;14.70;99.90;;;;;;5072793;28;20055;-82
2022/09/09 03:05:46;;;;;;;12.52;10.98;;;14.70;99.90;;;;;;5053407;28;20056;-86
2022/09/09 03:08:13;;;;;;;13.63;10.82;;;14.70;99.90;;;;;;5056888;28;20416;-86
2022/09/09 03:10:39;;;;;;;14.82;10.60;;;14.70;99.90;;;;;;5066489;28;20138;-85
2022/09/09 03:13:08;;;;;;;16.10;10.30;;;14.70;99.90;;;;;;5057593;28;20044;-86
2022/09/09 03:15:35;;;;;;;12.77;9.98;;;14.70;99.90;;;;;;5046282;28;20452;-83
2022/09/09 03:18:01;;;;;;;14.20;11.30;;;14.70;99.90;;;;;;5063855;28;20052;-82
2022/09/09 03:20:31;;;;;;;16.65;12.02;;;14.80;99.90;;;;;;5062419;28;20672;-86
2022/09/09 03:22:59;;;;;;;12.90;10.48;;;14.70;99.90;;;;;;5074328;28;20040;-86
2022/09/09 03:25:25;;;;;;;16.70;12.18;;;14.70;99.90;;;;;;5065341;28;20090;-87
2022/09/09 03:27:54;;;;;;;11.60;10.30;;;14.70;99.90;;;;;;5074569;28;20067;-82
2022/09/09 03:30:24;;;;;;;11.07;9.82;;;14.70;99.90;;;;;;5068300;28;20063;-83
2022/09/09 03:32:50;;;;;;;;;;;14.80;99.90;;;;;;5065564;28;20118;-83
2022/09/09 03:35:16;;;;;;;15.90;11.52;;;14.70;99.90;;;;;;5061716;28;19924;-83
2022/09/09 03:37:42;;;;;;;12.05;9.93;;;14.70;99.90;;;;;;5067033;28;20161;-83
2022/09/09 03:40:09;;;;;;;11.02;8.80;;;14.70;99.90;;;;;;5069825;28;20442;-83
2022/09/09 03:42:36;;;;;;;9.52;8.25;;;14.70;99.90;;;;;;5054194;28;20055;-83
2022/09/09 03:45:04;;;;;;;17.42;11.90;;;14.70;99.90;;;;;;5083447;28;20118;-83
2022/09/09 03:47:30;;;;;;;10.55;8.65;;;14.70;99.90;;;;;;5062340;28;20499;-87
2022/09/09 03:49:56;;;;;;;13.65;10.27;;;14.70;99.90;;;;;;5067243;28;20039;-87
2022/09/09 03:52:24;;;;;;;10.82;9.40;;;14.70;99.90;;;;;;5070090;28;20044;-87
2022/09/09 03:54:51;;;;;;;10.27;9.05;;;14.70;99.90;;;;;;5070988;28;20052;-87
2022/09/09 03:57:17;;;;;;;11.18;9.98;;;14.70;99.90;;;;;;5074621;28;20115;-87
2022/09/09 03:59:43;;;;;;;14.65;11.57;;;14.70;99.90;;;;;;5047779;28;20144;-88
2022/09/09 04:02:09;;;;;;;13.82;11.60;;;14.60;99.90;;;;;;5046639;28;20610;-83
2022/09/09 04:04:38;;;;;;;12.02;10.77;;;14.70;99.90;;;;;;5051152;28;20939;-88
2022/09/09 04:07:06;;;;;;;12.88;11.57;;;14.70;99.90;;;;;;5052212;28;20075;-88
2022/09/09 04:09:32;;;;;;;12.20;10.88;;;14.60;99.90;;;;;;5046608;28;20563;-87
2022/09/09 04:11:58;;;;;;;14.75;13.25;;;14.70;99.90;;;;;;5069701;28;20164;-87
2022/09/09 04:14:28;;;;;;;16.25;14.60;;;14.70;99.90;;;;;;5067900;28;20032;-88
2022/09/09 04:16:55;;;;;;;16.10;13.35;;;14.70;99.90;;;;;;5060013;28;20510;-87
2022/09/09 04:19:21;;;;;;;13.35;11.95;;;14.60;99.90;;;;;;5052595;28;20499;-87
2022/09/09 04:21:51;;;;;;;15.27;13.65;;;14.70;99.90;;;;;;5061547;28;20083;-87
2022/09/09 04:24:17;;;;;;;19.42;15.27;;;14.70;99.90;;;;;;5045306;28;20043;-87
2022/09/09 04:26:43;;;;;;;15.77;12.88;;;14.60;99.90;;;;;;5063652;28;20040;-87
2022/09/09 04:29:08;;;;;;;13.98;12.55;;;14.60;99.90;;;;;;5026868;28;20036;-88
2022/09/09 04:31:34;;;;;;;15.00;13.30;;;14.60;99.90;;;;;;5077325;28;20071;-88
2022/09/09 04:34:05;;;;;;;18.10;14.60;;;14.60;99.90;;;;;;5050372;28;20046;-87
2022/09/09 04:36:32;;;;;;;22.75;16.40;;;14.60;99.90;;;;;;5055273;28;20048;-88
2022/09/09 04:38:58;;;;;;;17.67;14.82;;;14.60;99.90;;;;;;5067023;28;20056;-89
2022/09/09 04:41:24;;;;;;;19.10;15.18;;;14.60;99.90;;;;;;5054865;28;20036;-87
2022/09/09 04:43:53;;;;;;;16.95;15.02;;;14.60;99.90;;;;;;5041039;28;20142;-88
2022/09/09 04:46:20;;;;;;;27.85;18.35;;;14.60;99.90;;;;;;5065642;28;20047;-88
2022/09/09 04:48:46;;;;;;;18.02;14.82;;;14.60;99.90;;;;;;5061455;28;20052;-89
2022/09/09 04:51:14;;;;;;;20.52;16.27;;;14.60;99.90;;;;;;5069336;28;20050;-88
2022/09/09 04:53:43;;;;;;;18.90;16.15;;;14.60;99.90;;;;;;5050140;28;20040;-88
2022/09/09 04:56:16;;;;;;;23.45;18.80;;;14.50;99.90;;;;;;5061262;28;20501;-87
2022/09/09 04:58:45;;;;;;;21.65;18.08;;;14.50;99.90;;;;;;5049535;28;20388;-88
2022/09/09 05:01:19;;;;;;;19.08;16.67;;;14.50;99.90;;;;;;5042034;28;20127;-90
2022/09/09 05:03:46;;;;;;;27.10;19.77;;;14.50;99.90;;;;;;5052166;28;20116;-89
2022/09/09 05:06:14;;;;;;;18.50;16.52;;;14.50;99.90;;;;;;5065029;28;20040;-90
2022/09/09 05:08:49;;;;;;;18.35;16.33;;;14.50;99.90;;;;;;5067767;28;20044;-89
2022/09/09 05:11:16;;;;;;;20.85;18.15;;;14.50;99.90;;;;;;5067296;28;20045;-90
2022/09/09 05:13:46;;;;;;;21.15;16.55;;;14.50;99.90;;;;;;5059440;28;20410;-87
2022/09/09 05:16:12;;;;;;;20.85;16.38;;;14.40;99.90;;;;;;5062112;28;20082;-90
2022/09/09 05:18:40;;;;;;;22.40;18.00;;;14.40;99.90;;;;;;5080287;28;20050;-90
2022/09/09 05:21:16;;;;;;;20.92;17.77;;;14.40;99.90;;;;;;5060317;28;20056;-89
2022/09/09 05:23:41;;;;;;;19.33;16.83;;;14.40;99.90;;;;;;5062960;28;20040;-91
2022/09/09 05:26:12;;;;;;;19.90;17.80;;;14.30;99.90;;;;;;5048383;28;20035;-90
2022/09/09 05:28:37;;;;;;;;;;;14.40;99.90;;;;;;5063204;28;20048;-90
2022/09/09 05:31:08;;;;;;;17.10;15.40;;;14.30;99.90;;;;;;5050162;28;19935;-90
2022/09/09 05:33:35;;;;;;;17.30;15.50;;;14.30;99.90;;;;;;5063198;28;20498;-90
2022/09/09 05:36:04;;;;;;;16.73;14.25;;;14.30;99.90;;;;;;5048843;28;20113;-90
2022/09/09 05:38:32;;;;;;;16.35;14.65;;;14.30;99.90;;;;;;5069410;28;20102;-90
2022/09/09 05:40:59;;;;;;;17.38;15.48;;;14.30;99.90;;;;;;5054519;28;20122;-89
2022/09/09 05:43:29;;;;;;;18.80;16.75;;;14.30;99.90;;;;;;5043362;28;20402;-91
2022/09/09 05:46:08;;;;;;;15.70;14.20;;;14.30;99.90;;;;;;5047325;28;20071;-89
2022/09/09 05:48:37;;;;;;;16.38;14.60;;;14.30;99.90;;;;;;5078095;28;20052;-89
2022/09/09 05:51:04;;;;;;;16.83;15.02;;;14.30;99.90;;;;;;5058888;28;20093;-88
2022/09/09 05:53:37;;;;;;;19.15;15.60;;;14.30;99.90;;;;;;5041204;28;20045;-90
2022/09/09 05:56:10;;;;;;;15.75;14.15;;;14.30;99.90;;;;;;5043652;28;20097;-88
2022/09/09 05:58:39;;;;;;;18.13;16.08;;;14.30;99.90;;;;;;5052582;28;20055;-90
2022/09/09 06:01:14;;;;;;;20.42;16.48;;;14.30;99.90;;;;;;5066621;28;20058;-90
2022/09/09 06:03:41;;;;;;;17.33;15.48;;;14.30;99.90;;;;;;5059613;28;20047;-89
2022/09/09 06:06:10;;;;;;;18.15;16.25;;;14.30;99.90;;;;;;5077171;28;20483;-92
2022/09/09 06:08:43;;;;;;;16.60;14.82;;;14.30;99.90;;;;;;5062077;28;20044;-92
2022/09/09 06:11:12;;;;;;;16.95;14.77;;;14.40;99.90;;;;;;5045583;28;20543;-92
2022/09/09 06:13:41;;;;;;;21.80;17.10;;;14.40;99.90;;;;;;5078790;28;20041;-93
2022/09/09 06:16:16;;;;;;;22.00;17.92;;;14.30;99.90;;;;;;5064853;28;20128;-83
2022/09/09 06:18:43;;;;;;;17.20;15.40;;;14.50;99.90;;;;;;5067490;28;20052;-82
2022/09/09 06:21:17;;;;;;;16.73;14.93;;;14.40;99.90;;;;;;5066724;28;20036;-90
2022/09/09 06:23:47;;;;;;;17.15;15.25;;;14.50;99.90;;;;;;5064127;28;20092;-87
2022/09/09 06:26:17;;;;;;;15.35;13.90;;;14.50;99.90;;;;;;5037983;28;20102;-87
2022/09/09 06:28:43;;;;;;;16.58;14.77;;;14.50;99.90;;;;;;5086722;28;20605;-87
2022/09/09 06:31:12;;;;;;;16.40;14.68;;;14.50;99.90;;;;;;5059221;28;20044;-89
2022/09/09 06:33:44;;;;;;;16.33;14.73;;;14.50;99.90;;;;;;5061389;28;20043;-89
2022/09/09 06:36:37;;;;;;;17.30;14.88;;;14.60;99.90;;;;;;5069073;28;20434;-92
2022/09/09 06:39:04;;;;;;;14.50;13.10;;;14.60;99.90;;;;;;5080302;28;20052;-88
2022/09/09 06:41:31;;;;;;;21.17;16.23;;;14.60;99.90;;;;;;5058791;28;20051;-91
2022/09/09 06:43:57;;;;;;;15.88;14.18;;;14.70;99.90;;;;;;5047646;28;20503;-91
2022/09/09 06:46:28;;;;;;;17.55;15.75;;;14.70;99.90;;;;;;5056937;28;20423;-90
2022/09/09 06:48:59;;;;;;;16.77;14.13;;;14.70;99.90;;;;;;5063674;28;20075;-81
2022/09/09 06:51:31;;;;;;;15.90;14.27;;;14.80;99.90;;;;;;5050636;28;20059;-81
2022/09/09 06:53:59;;;;;;;16.35;14.05;;;14.80;99.90;;;;;;5060137;28;20044;-81
2022/09/09 06:56:31;;;;;;;16.33;14.50;;;14.70;99.90;;;;;;5061572;28;20143;-81
2022/09/09 06:59:02;;;;;;;15.32;13.48;;;14.80;99.90;;;;;;5066164;28;20445;-81
2022/09/09 07:01:33;;;;;;;16.65;14.95;;;14.90;99.90;;;;;;5064056;28;20058;-83
2022/09/09 07:03:59;;;;;;;15.38;13.85;;;14.90;99.90;;;;;;5067263;28;20047;-88
2022/09/09 07:06:31;;;;;;;15.77;13.88;;;14.80;99.90;;;;;;5052821;28;20051;-88
2022/09/09 07:09:00;;;;;;;17.52;14.25;;;15.00;99.90;;;;;;5066604;28;20123;-90
2022/09/09 07:11:34;;;;;;;14.35;12.90;;;15.00;99.90;;;;;;5060566;28;20275;-88
2022/09/09 07:14:00;;;;;;;17.58;13.75;;;15.00;99.90;;;;;;5059505;28;20128;-89
2022/09/09 07:16:29;;;;;;;14.18;12.73;;;15.10;99.90;;;;;;5060156;28;20058;-88
2022/09/09 07:18:57;;;;;;;13.82;11.90;;;15.10;99.90;;;;;;5089985;28;20054;-88
2022/09/09 07:21:26;;;;;;;14.02;11.98;;;15.20;99.90;;;;;;5073090;28;20063;-89
2022/09/09 07:23:52;;;;;;;14.05;11.73;;;15.30;99.90;;;;;;5067097;28;20515;-87
2022/09/09 07:26:20;;;;;;;12.15;10.85;;;15.30;99.90;;;;;;5074004;28;20480;-91
2022/09/09 07:28:47;;;;;;;13.55;11.45;;;15.40;99.90;;;;;;5060897;28;20238;-89
2022/09/09 07:31:22;;;;;;;14.45;12.57;;;15.60;99.90;;;;;;5074009;28;20638;-90
2022/09/09 07:33:48;;;;;;;12.77;10.75;;;15.80;99.90;;;;;;5087941;28;20071;-89
2022/09/09 07:36:23;;;;;;;10.27;9.27;;;15.80;99.90;;;;;;5056140;28;20036;-85
2022/09/09 07:38:51;;;;;;;11.05;9.68;;;15.90;99.90;;;;;;5070601;28;20565;-86
2022/09/09 07:41:23;;;;;;;12.32;10.38;;;15.90;99.90;;;;;;5072249;28;20491;-85
2022/09/09 07:43:50;;;;;;;10.95;8.85;;;15.90;99.90;;;;;;5078832;28;20047;-87
2022/09/09 07:46:19;;;;;;;10.50;9.38;;;15.90;99.90;;;;;;5065033;28;20044;-87
2022/09/09 07:48:55;;;;;;;11.07;9.25;;;16.00;99.90;;;;;;5077292;28;20091;-86
2022/09/09 07:51:24;;;;;;;9.63;8.32;;;16.10;99.90;;;;;;5048765;28;20044;-87
2022/09/09 07:53:59;;;;;;;10.13;8.95;;;16.20;99.90;;;;;;5060135;28;20048;-86
2022/09/09 07:56:26;;;;;;;11.00;9.18;;;16.30;99.90;;;;;;5051912;28;20384;-89
2022/09/09 07:58:58;;;;;;;10.18;8.88;;;16.50;99.90;;;;;;5080677;28;20043;-89
2022/09/09 08:01:37;;;;;;;12.68;8.60;;;16.70;99.90;;;;;;5059985;28;20044;-87
2022/09/09 08:04:15;;;;;;;11.40;8.95;;;16.70;99.90;;;;;;5061513;28;20040;-92
2022/09/09 08:06:49;;;;;;;11.77;8.68;;;16.90;99.90;;;;;;5063920;28;20048;-88
2022/09/09 08:09:15;;;;;;;9.50;8.40;;;17.00;99.90;;;;;;5062561;28;20131;-88
2022/09/09 08:11:42;;;;;;;12.00;9.15;;;17.00;99.90;;;;;;5057295;28;20075;-86
2022/09/09 08:14:09;;;;;;;11.25;7.72;;;17.10;99.90;;;;;;5076662;28;20048;-86
2022/09/09 08:16:41;;;;;;;10.82;7.72;;;17.20;99.90;;;;;;5074392;28;20051;-87
2022/09/09 08:19:10;;;;;;;10.52;7.82;;;17.40;99.90;;;;;;5060087;28;20521;-88
2022/09/09 08:21:39;;;;;;;11.15;7.68;;;17.60;99.90;;;;;;5057955;28;20055;-88
2022/09/09 08:24:07;;;;;;;9.63;8.27;;;17.70;99.90;;;;;;5057253;28;20041;-90
2022/09/09 08:26:37;;;;;;;9.60;7.38;;;17.80;99.90;;;;;;5061480;28;20157;-85
2022/09/09 08:29:06;;;;;;;9.77;8.00;;;17.80;99.90;;;;;;5064607;28;20506;-92
2022/09/09 08:31:38;;;;;;;10.73;7.75;;;17.80;99.90;;;;;;5057707;28;20515;-91
2022/09/09 08:34:09;;;;;;;11.45;7.90;;;17.80;99.90;;;;;;5047494;28;20491;-83
2022/09/09 08:36:43;;;;;;;10.98;8.43;;;17.80;99.90;;;;;;5043053;28;20542;-84
2022/09/09 08:39:11;;;;;;;11.80;8.43;;;17.80;99.90;;;;;;5060027;28;20596;-90
2022/09/09 08:42:00;;;;;;;9.68;7.97;;;17.70;99.90;;;;;;5038314;28;20503;-91
2022/09/09 08:44:45;;;;;;;11.60;9.07;;;17.60;99.90;;;;;;5063163;28;20044;-91
2022/09/09 08:47:34;;;;;;;10.00;6.93;;;17.60;99.90;;;;;;5071293;28;20405;-90
2022/09/09 08:50:27;;;;;;;10.70;7.75;;;17.70;99.90;;;;;;5041031;28;20510;-88
2022/09/09 08:53:21;;;;;;;8.25;6.03;;;17.80;99.90;;;;;;5060346;28;20205;-90
2022/09/09 08:55:54;;;;;;;11.73;6.53;;;18.00;99.90;;;;;;5054618;28;20044;-91
2022/09/09 08:58:22;;;;;;;10.20;7.00;;;18.20;99.90;;;;;;5073834;28;20048;-89
2022/09/09 09:01:08;;;;;;;9.68;6.10;;;18.20;99.90;;;;;;5056249;28;20051;-89
2022/09/09 09:04:13;;;;;;;9.10;5.97;;;18.20;99.90;;;;;;5058232;28;20044;-90
2022/09/09 09:06:51;;;;;;;9.57;6.03;;;18.20;99.90;;;;;;5056866;28;20063;-91
2022/09/09 09:10:08;;;;;;;10.15;5.28;;;18.40;99.90;;;;;;5064679;28;20524;-86
2022/09/09 09:12:41;;;;;;;8.80;5.00;;;18.50;99.90;;;;;;5027182;28;20178;-90
2022/09/09 09:15:20;;;;;;;12.45;5.22;;;18.60;99.90;;;;;;5061529;28;20042;-89
2022/09/09 09:17:48;;;;;;;9.75;5.22;;;18.60;99.90;;;;;;5063275;28;20071;-83
2022/09/09 09:20:16;;;;;;;11.38;4.35;;;18.70;99.90;;;;;;5068218;28;20099;-84
2022/09/09 09:22:51;;;;;;;12.68;5.07;;;18.80;99.90;;;;;;5044054;28;20055;-81
2022/09/09 09:25:25;;;;;;;11.43;5.22;;;18.70;99.90;;;;;;5056921;28;20055;-89
2022/09/09 09:28:17;;;;;;;9.20;4.32;;;18.60;99.90;;;;;;5061125;28;20451;-82
2022/09/09 09:31:01;;;;;;;9.68;4.07;;;18.50;99.90;;;;;;5044045;28;20105;-83
2022/09/09 09:33:33;;;;;;;9.00;4.00;;;18.40;99.90;;;;;;5069876;28;20172;-81
2022/09/09 09:35:59;;;;;;;9.35;4.38;;;18.40;99.90;;;;;;5053403;28;20244;-81
2022/09/09 09:38:28;;;;;;;8.18;3.60;;;18.40;99.90;;;;;;5039172;28;20516;-82
2022/09/09 09:40:58;;;;;;;8.35;3.58;;;18.60;99.90;;;;;;5053125;28;20046;-82
2022/09/09 09:43:34;;;;;;;8.07;2.95;;;18.70;99.90;;;;;;5074316;28;20115;-83
2022/09/09 09:46:00;;;;;;;9.38;3.60;;;18.90;99.90;;;;;;5078948;28;20558;-84
2022/09/09 09:48:27;;;;;;;9.38;3.20;;;18.90;99.90;;;;;;5059046;28;20077;-88
2022/09/09 09:51:05;;;;;;;10.75;3.75;;;18.90;99.90;;;;;;5060803;28;20044;-89
2022/09/09 09:53:34;;;;;;;14.57;3.70;;;19.00;99.90;;;;;;5061062;28;20041;-89
2022/09/09 09:56:01;;;;;;;9.75;3.53;;;19.20;99.90;;;;;;5058888;28;20058;-88
2022/09/09 09:58:32;;;;;;;7.55;3.13;;;19.30;99.90;;;;;;5052372;28;20525;-88
2022/09/09 10:00:59;;;;;;;7.72;2.90;;;19.30;99.90;;;;;;5061994;28;20371;-88
2022/09/09 10:03:29;;;;;;;9.63;3.65;;;19.10;99.90;;;;;;5074123;28;20048;-85
2022/09/09 10:05:56;;;;;;;7.18;2.70;;;19.20;99.90;;;;;;5054538;28;20043;-89
2022/09/09 10:08:24;;;;;;;9.95;2.72;;;19.20;99.90;;;;;;5047794;28;20482;-86
2022/09/09 10:11:09;;;;;;;9.45;3.03;;;19.30;99.90;;;;;;5059257;28;20569;-87
2022/09/09 10:13:41;;;;;;;8.05;2.38;;;19.40;99.90;;;;;;5074976;28;20135;-87
2022/09/09 10:16:16;;;;;;;7.70;2.45;;;19.30;99.90;;;;;;5078128;28;20568;-85
2022/09/09 10:19:00;;;;;;;5.65;2.47;;;19.20;99.90;;;;;;5057797;28;20502;-86
2022/09/09 10:21:57;;;;;;;7.82;2.92;;;19.30;99.90;;;;;;5067599;28;20059;-81
2022/09/09 10:24:57;;;;;;;7.80;2.70;;;19.40;99.90;;;;;;5072579;28;20040;-81
2022/09/09 10:27:32;;;;;;;;;;;19.70;99.90;;;;;;5065246;28;20046;-81
2022/09/09 10:30:21;;;;;;;6.55;2.15;;;19.80;99.90;;;;;;5070337;28;20814;-84
2022/09/09 10:33:05;;;;;;;9.63;2.42;;;19.90;99.90;;;;;;5076795;28;20090;-86
2022/09/09 10:35:55;;;;;;;7.60;2.08;;;19.70;99.90;;;;;;5058645;28;20040;-84
2022/09/09 10:38:48;;;;;;;8.50;2.55;;;19.60;99.90;;;;;;5068401;28;20158;-84
2022/09/09 10:41:20;;;;;;;9.60;2.45;;;19.50;99.90;;;;;;5066113;28;20082;-85
2022/09/09 10:44:22;;;;;;;6.65;2.00;;;19.50;99.90;;;;;;5049277;28;20042;-83
2022/09/09 10:47:13;;;;;;;7.82;2.47;;;19.60;99.90;;;;;;5053036;28;20052;-84
2022/09/09 10:50:34;;;;;;;8.18;2.10;;;19.80;99.90;;;;;;5065445;28;20056;-83
2022/09/09 10:53:23;;;;;;;7.82;2.15;;;20.00;99.90;;;;;;4983735;28;20084;-83
2022/09/09 10:55:56;;;;;;;7.97;2.07;;;20.20;99.90;;;;;;5047998;28;20100;-85
2022/09/09 10:58:34;;;;;;;6.95;2.38;;;20.30;99.90;;;;;;5061285;28;20332;-83
2022/09/09 11:01:24;;;;;;;8.85;2.80;;;20.20;99.90;;;;;;5059967;28;20070;-84
2022/09/09 11:04:03;;;;;;;6.32;2.00;;;20.10;99.90;;;;;;5042802;28;20311;-84
2022/09/09 11:06:36;;;;;;;8.05;2.30;;;20.00;99.90;;;;;;5061250;28;20106;-82
2022/09/09 11:09:04;;;;;;;8.52;2.30;;;19.90;99.90;;;;;;5079643;28;20507;-83
2022/09/09 11:11:53;;;;;;;8.32;2.70;;;19.80;99.90;;;;;;5043019;28;20377;-82
2022/09/09 11:14:42;;;;;;;6.18;2.05;;;19.90;99.90;;;;;;5065767;28;20039;-82
2022/09/09 11:17:20;;;;;;;5.60;2.00;;;19.80;99.90;;;;;;5061534;28;20136;-82
2022/09/09 11:19:46;;;;;;;8.02;2.40;;;19.70;99.90;;;;;;5073230;28;20036;-81
2022/09/09 11:22:32;;;;;;;8.25;2.20;;;19.70;99.90;;;;;;5070081;28;20090;-77
2022/09/09 11:25:23;;;;;;;6.35;2.30;;;19.60;99.90;;;;;;5062279;28;20055;-79
2022/09/09 11:28:16;;;;;;;8.15;2.30;;;19.70;99.90;;;;;;5069791;28;20474;-78
2022/09/09 11:30:59;;;;;;;7.03;1.88;;;19.60;99.90;;;;;;5064362;28;20575;-78
2022/09/09 11:33:34;;;;;;;5.32;2.00;;;19.70;99.90;;;;;;5053015;28;20048;-78
2022/09/09 11:36:19;;;;;;;8.07;2.22;;;19.70;99.90;;;;;;5064231;28;20427;-78
2022/09/09 11:38:47;;;;;;;5.10;1.90;;;19.70;99.90;;;;;;5070427;28;20070;-77
2022/09/09 11:41:15;;;;;;;7.13;1.70;;;19.80;99.90;;;;;;5066562;28;20043;-78
2022/09/09 11:43:41;;;;;;;8.57;2.55;;;19.70;99.90;;;;;;5077852;28;20518;-78
2022/09/09 11:46:08;;;;;;;6.63;2.08;;;19.70;99.90;;;;;;5070323;28;20082;-77
2022/09/09 11:48:45;;;;;;;7.78;1.90;;;19.60;99.90;;;;;;5051514;28;20044;-78
2022/09/09 11:51:20;;;;;;;9.80;2.35;;;19.50;99.90;;;;;;5070774;28;20075;-79
2022/09/09 11:53:52;;;;;;;7.35;2.53;;;19.50;99.90;;;;;;5065093;28;20045;-79
2022/09/09 11:56:30;;;;;;;8.68;2.38;;;19.40;99.90;;;;;;5050984;28;20056;-78
2022/09/09 11:59:24;;;;;;;8.10;1.95;;;19.40;99.90;;;;;;5065576;28;20048;-79
2022/09/09 12:02:10;;;;;;;7.22;2.47;;;19.30;99.90;;;;;;5056575;28;20048;-79
2022/09/09 12:04:44;;;;;;;6.88;2.42;;;19.20;99.90;;;;;;5061928;28;20052;-79
2022/09/09 12:07:11;;;;;;;6.00;1.90;;;19.20;99.90;;;;;;5072763;28;20416;-79
2022/09/09 12:10:18;;;;;;;6.53;2.28;;;19.30;99.90;;;;;;5058658;28;20122;-79
2022/09/09 12:12:44;;;;;;;7.00;2.22;;;19.50;99.90;;;;;;5042187;28;20183;-78
2022/09/09 12:15:10;;;;;;;9.85;2.90;;;19.70;99.90;;;;;;5058166;28;20314;-78
2022/09/09 12:17:42;;;;;;;6.53;2.00;;;19.80;99.90;;;;;;5059320;28;20402;-78
2022/09/09 12:20:16;;;;;;;5.65;1.63;;;19.90;99.90;;;;;;5065372;28;20044;-79
2022/09/09 12:23:00;;;;;;;6.13;2.30;;;20.00;99.90;;;;;;5059047;28;20127;-82
2022/09/09 12:26:03;;;;;;;8.50;2.13;;;20.10;99.90;;;;;;5067979;28;20037;-81
2022/09/09 12:28:50;;;;;;;7.43;1.83;;;20.20;99.90;;;;;;5068043;28;20052;-80
2022/09/09 12:31:30;;;;;;;7.72;1.80;;;20.20;99.90;;;;;;5065220;28;20076;-80
2022/09/09 12:34:10;;;;;;;5.20;1.70;;;20.30;99.90;;;;;;5052451;28;20048;-81
2022/09/09 12:36:38;;;;;;;4.80;1.58;;;20.30;99.90;;;;;;5047012;28;20093;-81
2022/09/09 12:39:33;;;;;;;5.32;1.42;;;20.20;99.90;;;;;;5060225;28;20036;-83
2022/09/09 12:41:59;;;;;;;5.80;1.75;;;20.10;99.90;;;;;;5045544;28;20056;-79
2022/09/09 12:44:28;;;;;;;6.45;1.52;;;20.10;99.90;;;;;;5057749;28;20077;-83
2022/09/09 12:46:56;;;;;;;7.32;1.92;;;20.00;99.90;;;;;;5062201;28;20456;-82
2022/09/09 12:49:38;;;;;;;5.55;1.60;;;20.00;99.90;;;;;;5058523;28;20087;-83
2022/09/09 12:52:16;;;;;;;5.65;2.25;;;20.10;99.90;;;;;;5061739;28;20045;-83
2022/09/09 12:54:51;;;;;;;7.75;1.95;;;20.20;99.90;;;;;;5059383;28;20529;-82
2022/09/09 12:57:17;;;;;;;7.22;1.88;;;20.30;99.90;;;;;;5065510;28;20420;-80
2022/09/09 12:59:47;;;;;;;5.25;1.77;;;20.20;99.90;;;;;;5036754;28;20127;-82
2022/09/09 13:02:27;;;;;;;5.55;1.70;;;19.90;99.90;;;;;;5052909;28;20268;-84
2022/09/09 13:04:54;;;;;;;9.55;2.40;;;19.90;99.90;;;;;;5065482;28;20055;-88
2022/09/09 13:07:21;;;;;;;7.57;2.40;;;19.80;99.90;;;;;;5048180;28;20594;-87
2022/09/09 13:09:49;;;;;;;7.57;2.17;;;19.70;99.90;;;;;;5065861;28;20485;-86
2022/09/09 13:12:22;;;;;;;8.23;2.67;;;19.70;99.90;;;;;;5060187;28;20363;-85